sensor_id;sensor_type;location;lat;lon;timestamp;P1;durP1;ratioP1;P2;durP2;ratioP2
78120;SDS011;67585;44.802;10.332;2023-03-05T00:00:11;3.55;;;0.93;;
78120;SDS011;67585;44.802;10.332;2023-03-05T00:02:39;3.95;;;1.30;;
78120;SDS011;67585;44.802;10.332;2023-03-05T00:05:04;4.55;;;1.00;;
78120;SDS011;67585;44.802;10.332;2023-03-05T00:07:30;4.38;;;1.60;;
78120;SDS011;67585;44.802;10.332;2023-03-05T00:10:00;4.78;;;1.42;;
78120;SDS011;67585;44.802;10.332;2023-03-05T00:12:26;3.35;;;1.05;;
78120;SDS011;67585;44.802;10.332;2023-03-05T00:14:52;4.30;;;1.02;;
78120;SDS011;67585;44.802;10.332;2023-03-05T00:17:17;4.47;;;1.52;;
78120;SDS011;67585;44.802;10.332;2023-03-05T00:19:42;5.53;;;1.40;;
78120;SDS011;67585;44.802;10.332;2023-03-05T00:22:08;2.95;;;0.88;;
78120;SDS011;67585;44.802;10.332;2023-03-05T00:24:33;4.70;;;1.45;;
78120;SDS011;67585;44.802;10.332;2023-03-05T00:26:59;3.75;;;0.80;;
78120;SDS011;67585;44.802;10.332;2023-03-05T00:29:24;3.58;;;1.05;;
78120;SDS011;67585;44.802;10.332;2023-03-05T00:31:52;4.78;;;0.88;;
78120;SDS011;67585;44.802;10.332;2023-03-05T00:34:18;3.45;;;0.88;;
78120;SDS011;67585;44.802;10.332;2023-03-05T00:36:47;4.45;;;1.08;;
78120;SDS011;67585;44.802;10.332;2023-03-05T00:39:15;4.70;;;0.98;;
78120;SDS011;67585;44.802;10.332;2023-03-05T00:41:44;3.72;;;1.08;;
78120;SDS011;67585;44.802;10.332;2023-03-05T00:44:09;2.72;;;0.63;;
78120;SDS011;67585;44.802;10.332;2023-03-05T00:46:35;4.97;;;0.52;;
78120;SDS011;67585;44.802;10.332;2023-03-05T00:49:01;3.88;;;0.82;;
78120;SDS011;67585;44.802;10.332;2023-03-05T00:51:27;3.22;;;0.88;;
78120;SDS011;67585;44.802;10.332;2023-03-05T00:53:53;3.67;;;1.02;;
78120;SDS011;67585;44.802;10.332;2023-03-05T00:56:18;3.03;;;1.20;;
78120;SDS011;67585;44.802;10.332;2023-03-05T00:58:44;4.03;;;1.40;;
78120;SDS011;67585;44.802;10.332;2023-03-05T01:01:10;2.92;;;0.55;;
78120;SDS011;67585;44.802;10.332;2023-03-05T01:03:35;4.15;;;0.68;;
78120;SDS011;67585;44.802;10.332;2023-03-05T01:06:02;2.58;;;0.40;;
78120;SDS011;67585;44.802;10.332;2023-03-05T01:08:30;3.85;;;0.63;;
78120;SDS011;67585;44.802;10.332;2023-03-05T01:10:55;2.13;;;0.40;;
78120;SDS011;67585;44.802;10.332;2023-03-05T01:13:21;3.17;;;0.98;;
78120;SDS011;67585;44.802;10.332;2023-03-05T01:15:47;4.00;;;0.80;;
78120;SDS011;67585;44.802;10.332;2023-03-05T01:18:15;3.05;;;0.68;;
78120;SDS011;67585;44.802;10.332;2023-03-05T01:20:40;7.38;;;1.40;;
78120;SDS011;67585;44.802;10.332;2023-03-05T01:23:06;3.28;;;0.80;;
78120;SDS011;67585;44.802;10.332;2023-03-05T01:25:31;2.58;;;0.63;;
78120;SDS011;67585;44.802;10.332;2023-03-05T01:27:56;3.08;;;0.95;;
78120;SDS011;67585;44.802;10.332;2023-03-05T01:30:22;3.63;;;0.75;;
78120;SDS011;67585;44.802;10.332;2023-03-05T01:32:47;3.97;;;0.93;;
78120;SDS011;67585;44.802;10.332;2023-03-05T01:35:18;2.90;;;0.40;;
78120;SDS011;67585;44.802;10.332;2023-03-05T01:37:46;3.58;;;0.30;;
78120;SDS011;67585;44.802;10.332;2023-03-05T01:40:12;2.42;;;0.70;;
78120;SDS011;67585;44.802;10.332;2023-03-05T01:42:43;4.05;;;0.43;;
78120;SDS011;67585;44.802;10.332;2023-03-05T01:45:12;3.05;;;0.57;;
78120;SDS011;67585;44.802;10.332;2023-03-05T01:47:40;6.78;;;0.47;;
78120;SDS011;67585;44.802;10.332;2023-03-05T01:50:06;2.97;;;0.60;;
78120;SDS011;67585;44.802;10.332;2023-03-05T01:52:35;3.05;;;0.40;;
78120;SDS011;67585;44.802;10.332;2023-03-05T01:55:36;2.50;;;0.63;;
78120;SDS011;67585;44.802;10.332;2023-03-05T01:57:59;3.30;;;0.45;;
78120;SDS011;67585;44.802;10.332;2023-03-05T02:00:51;2.08;;;0.40;;
78120;SDS011;67585;44.802;10.332;2023-03-05T02:03:15;1.88;;;0.45;;
78120;SDS011;67585;44.802;10.332;2023-03-05T02:05:41;3.72;;;0.60;;
78120;SDS011;67585;44.802;10.332;2023-03-05T02:08:11;3.33;;;0.30;;
78120;SDS011;67585;44.802;10.332;2023-03-05T02:10:39;2.95;;;0.22;;
78120;SDS011;67585;44.802;10.332;2023-03-05T02:13:10;3.05;;;0.52;;
78120;SDS011;67585;44.802;10.332;2023-03-05T02:15:39;2.70;;;0.32;;
78120;SDS011;67585;44.802;10.332;2023-03-05T02:18:06;3.35;;;0.68;;
78120;SDS011;67585;44.802;10.332;2023-03-05T02:23:21;2.45;;;0.50;;
78120;SDS011;67585;44.802;10.332;2023-03-05T02:25:48;3.92;;;0.60;;
78120;SDS011;67585;44.802;10.332;2023-03-05T02:28:17;2.67;;;0.63;;
78120;SDS011;67585;44.802;10.332;2023-03-05T02:31:24;2.95;;;0.30;;
78120;SDS011;67585;44.802;10.332;2023-03-05T02:33:50;3.90;;;0.75;;
78120;SDS011;67585;44.802;10.332;2023-03-05T02:36:18;2.25;;;0.40;;
78120;SDS011;67585;44.802;10.332;2023-03-05T02:38:43;2.45;;;0.40;;
78120;SDS011;67585;44.802;10.332;2023-03-05T02:43:36;2.07;;;0.10;;
78120;SDS011;67585;44.802;10.332;2023-03-05T02:46:02;2.35;;;0.55;;
78120;SDS011;67585;44.802;10.332;2023-03-05T02:48:27;1.95;;;0.40;;
78120;SDS011;67585;44.802;10.332;2023-03-05T02:50:53;2.45;;;0.20;;
78120;SDS011;67585;44.802;10.332;2023-03-05T02:53:20;1.90;;;0.30;;
78120;SDS011;67585;44.802;10.332;2023-03-05T02:55:46;3.17;;;0.60;;
78120;SDS011;67585;44.802;10.332;2023-03-05T02:58:12;3.08;;;0.38;;
78120;SDS011;67585;44.802;10.332;2023-03-05T03:00:38;2.40;;;0.38;;
78120;SDS011;67585;44.802;10.332;2023-03-05T03:03:03;2.05;;;0.40;;
78120;SDS011;67585;44.802;10.332;2023-03-05T03:05:28;1.90;;;0.40;;
78120;SDS011;67585;44.802;10.332;2023-03-05T03:07:54;2.65;;;0.52;;
78120;SDS011;67585;44.802;10.332;2023-03-05T03:10:19;3.15;;;0.60;;
78120;SDS011;67585;44.802;10.332;2023-03-05T03:12:45;2.78;;;0.65;;
78120;SDS011;67585;44.802;10.332;2023-03-05T03:15:11;2.17;;;0.70;;
78120;SDS011;67585;44.802;10.332;2023-03-05T03:17:39;2.65;;;0.40;;
78120;SDS011;67585;44.802;10.332;2023-03-05T03:20:05;2.60;;;0.40;;
78120;SDS011;67585;44.802;10.332;2023-03-05T03:22:32;2.78;;;0.40;;
78120;SDS011;67585;44.802;10.332;2023-03-05T03:24:57;2.83;;;0.30;;
78120;SDS011;67585;44.802;10.332;2023-03-05T03:27:23;2.70;;;0.35;;
78120;SDS011;67585;44.802;10.332;2023-03-05T03:29:49;2.13;;;0.30;;
78120;SDS011;67585;44.802;10.332;2023-03-05T03:32:14;3.70;;;0.75;;
78120;SDS011;67585;44.802;10.332;2023-03-05T03:34:40;2.65;;;0.65;;
78120;SDS011;67585;44.802;10.332;2023-03-05T03:37:05;3.78;;;0.68;;
78120;SDS011;67585;44.802;10.332;2023-03-05T03:39:31;4.22;;;0.68;;
78120;SDS011;67585;44.802;10.332;2023-03-05T03:41:56;3.15;;;0.22;;
78120;SDS011;67585;44.802;10.332;2023-03-05T03:44:22;4.18;;;0.50;;
78120;SDS011;67585;44.802;10.332;2023-03-05T03:46:48;3.85;;;0.50;;
78120;SDS011;67585;44.802;10.332;2023-03-05T03:49:15;2.10;;;0.70;;
78120;SDS011;67585;44.802;10.332;2023-03-05T03:51:44;2.97;;;0.63;;
78120;SDS011;67585;44.802;10.332;2023-03-05T03:54:09;2.10;;;0.93;;
78120;SDS011;67585;44.802;10.332;2023-03-05T03:56:35;2.97;;;0.45;;
78120;SDS011;67585;44.802;10.332;2023-03-05T03:59:00;2.35;;;0.30;;
78120;SDS011;67585;44.802;10.332;2023-03-05T04:01:26;2.95;;;0.70;;
78120;SDS011;67585;44.802;10.332;2023-03-05T04:03:51;3.05;;;0.73;;
78120;SDS011;67585;44.802;10.332;2023-03-05T04:06:17;5.18;;;0.60;;
78120;SDS011;67585;44.802;10.332;2023-03-05T04:08:42;3.83;;;0.35;;
78120;SDS011;67585;44.802;10.332;2023-03-05T04:11:08;1.77;;;0.30;;
78120;SDS011;67585;44.802;10.332;2023-03-05T04:13:33;2.03;;;1.02;;
78120;SDS011;67585;44.802;10.332;2023-03-05T04:15:58;2.17;;;0.28;;
78120;SDS011;67585;44.802;10.332;2023-03-05T04:18:24;3.22;;;0.22;;
78120;SDS011;67585;44.802;10.332;2023-03-05T04:20:49;1.85;;;0.38;;
78120;SDS011;67585;44.802;10.332;2023-03-05T04:23:15;2.63;;;0.30;;
78120;SDS011;67585;44.802;10.332;2023-03-05T04:25:41;2.80;;;0.50;;
78120;SDS011;67585;44.802;10.332;2023-03-05T04:28:07;2.90;;;0.25;;
78120;SDS011;67585;44.802;10.332;2023-03-05T04:30:32;2.35;;;0.20;;
78120;SDS011;67585;44.802;10.332;2023-03-05T04:32:58;3.17;;;0.38;;
78120;SDS011;67585;44.802;10.332;2023-03-05T04:35:23;2.75;;;0.20;;
78120;SDS011;67585;44.802;10.332;2023-03-05T04:37:49;3.08;;;0.43;;
78120;SDS011;67585;44.802;10.332;2023-03-05T04:40:15;3.70;;;0.75;;
78120;SDS011;67585;44.802;10.332;2023-03-05T04:42:41;2.08;;;0.30;;
78120;SDS011;67585;44.802;10.332;2023-03-05T04:45:07;1.95;;;0.68;;
78120;SDS011;67585;44.802;10.332;2023-03-05T04:47:33;2.35;;;0.40;;
78120;SDS011;67585;44.802;10.332;2023-03-05T04:49:58;1.13;;;0.28;;
78120;SDS011;67585;44.802;10.332;2023-03-05T04:52:24;2.42;;;0.28;;
78120;SDS011;67585;44.802;10.332;2023-03-05T04:54:50;3.42;;;0.60;;
78120;SDS011;67585;44.802;10.332;2023-03-05T04:57:15;2.92;;;0.55;;
78120;SDS011;67585;44.802;10.332;2023-03-05T04:59:40;3.30;;;0.75;;
78120;SDS011;67585;44.802;10.332;2023-03-05T05:02:06;2.47;;;0.30;;
78120;SDS011;67585;44.802;10.332;2023-03-05T05:04:32;2.05;;;0.38;;
78120;SDS011;67585;44.802;10.332;2023-03-05T05:06:57;2.20;;;0.10;;
78120;SDS011;67585;44.802;10.332;2023-03-05T05:09:23;1.27;;;0.20;;
78120;SDS011;67585;44.802;10.332;2023-03-05T05:11:49;4.50;;;0.65;;
78120;SDS011;67585;44.802;10.332;2023-03-05T05:14:15;3.03;;;0.30;;
78120;SDS011;67585;44.802;10.332;2023-03-05T05:16:41;2.25;;;0.10;;
78120;SDS011;67585;44.802;10.332;2023-03-05T05:19:06;2.30;;;0.63;;
78120;SDS011;67585;44.802;10.332;2023-03-05T05:21:32;2.15;;;0.22;;
78120;SDS011;67585;44.802;10.332;2023-03-05T05:23:58;1.85;;;0.30;;
78120;SDS011;67585;44.802;10.332;2023-03-05T05:26:23;2.92;;;0.40;;
78120;SDS011;67585;44.802;10.332;2023-03-05T05:28:49;2.97;;;0.40;;
78120;SDS011;67585;44.802;10.332;2023-03-05T05:31:14;1.38;;;0.20;;
78120;SDS011;67585;44.802;10.332;2023-03-05T05:33:40;3.67;;;0.40;;
78120;SDS011;67585;44.802;10.332;2023-03-05T05:36:08;4.78;;;0.30;;
78120;SDS011;67585;44.802;10.332;2023-03-05T05:38:35;2.80;;;0.30;;
78120;SDS011;67585;44.802;10.332;2023-03-05T05:41:05;2.85;;;0.52;;
78120;SDS011;67585;44.802;10.332;2023-03-05T05:43:41;1.23;;;0.22;;
78120;SDS011;67585;44.802;10.332;2023-03-05T05:46:08;3.55;;;0.30;;
78120;SDS011;67585;44.802;10.332;2023-03-05T05:48:36;1.25;;;0.22;;
78120;SDS011;67585;44.802;10.332;2023-03-05T05:51:05;2.10;;;0.43;;
78120;SDS011;67585;44.802;10.332;2023-03-05T05:53:32;1.75;;;0.22;;
78120;SDS011;67585;44.802;10.332;2023-03-05T05:55:57;1.95;;;0.40;;
78120;SDS011;67585;44.802;10.332;2023-03-05T05:58:23;3.38;;;0.20;;
78120;SDS011;67585;44.802;10.332;2023-03-05T06:00:48;1.52;;;0.30;;
78120;SDS011;67585;44.802;10.332;2023-03-05T06:03:14;3.03;;;0.40;;
78120;SDS011;67585;44.802;10.332;2023-03-05T06:05:40;2.47;;;0.40;;
78120;SDS011;67585;44.802;10.332;2023-03-05T06:08:06;1.33;;;0.20;;
78120;SDS011;67585;44.802;10.332;2023-03-05T06:10:31;1.58;;;0.10;;
78120;SDS011;67585;44.802;10.332;2023-03-05T06:12:57;2.67;;;0.25;;
78120;SDS011;67585;44.802;10.332;2023-03-05T06:15:22;1.40;;;0.10;;
78120;SDS011;67585;44.802;10.332;2023-03-05T06:17:48;1.98;;;0.20;;
78120;SDS011;67585;44.802;10.332;2023-03-05T06:20:13;1.52;;;0.32;;
78120;SDS011;67585;44.802;10.332;2023-03-05T06:22:39;1.05;;;0.10;;
78120;SDS011;67585;44.802;10.332;2023-03-05T06:25:07;2.83;;;0.43;;
78120;SDS011;67585;44.802;10.332;2023-03-05T06:27:33;4.15;;;0.30;;
78120;SDS011;67585;44.802;10.332;2023-03-05T06:30:02;1.52;;;0.22;;
78120;SDS011;67585;44.802;10.332;2023-03-05T06:32:28;2.22;;;0.40;;
78120;SDS011;67585;44.802;10.332;2023-03-05T06:34:54;2.05;;;0.13;;
78120;SDS011;67585;44.802;10.332;2023-03-05T06:37:19;2.05;;;0.43;;
78120;SDS011;67585;44.802;10.332;2023-03-05T06:39:45;3.33;;;0.28;;
78120;SDS011;67585;44.802;10.332;2023-03-05T06:42:10;2.15;;;1.30;;
78120;SDS011;67585;44.802;10.332;2023-03-05T06:44:39;1.60;;;0.20;;
78120;SDS011;67585;44.802;10.332;2023-03-05T06:47:05;2.55;;;0.35;;
78120;SDS011;67585;44.802;10.332;2023-03-05T06:49:32;2.65;;;0.20;;
78120;SDS011;67585;44.802;10.332;2023-03-05T06:51:57;1.45;;;0.22;;
78120;SDS011;67585;44.802;10.332;2023-03-05T06:54:23;2.08;;;0.30;;
78120;SDS011;67585;44.802;10.332;2023-03-05T06:56:48;3.67;;;0.35;;
78120;SDS011;67585;44.802;10.332;2023-03-05T06:59:14;2.30;;;0.22;;
78120;SDS011;67585;44.802;10.332;2023-03-05T07:01:41;1.88;;;0.28;;
78120;SDS011;67585;44.802;10.332;2023-03-05T07:04:07;2.95;;;0.40;;
78120;SDS011;67585;44.802;10.332;2023-03-05T07:06:34;1.25;;;0.20;;
78120;SDS011;67585;44.802;10.332;2023-03-05T07:09:03;2.58;;;0.40;;
78120;SDS011;67585;44.802;10.332;2023-03-05T07:11:30;1.98;;;0.68;;
78120;SDS011;67585;44.802;10.332;2023-03-05T07:13:58;1.52;;;0.20;;
78120;SDS011;67585;44.802;10.332;2023-03-05T07:16:25;1.85;;;0.20;;
78120;SDS011;67585;44.802;10.332;2023-03-05T07:18:52;2.42;;;0.40;;
78120;SDS011;67585;44.802;10.332;2023-03-05T07:21:20;1.45;;;0.35;;
78120;SDS011;67585;44.802;10.332;2023-03-05T07:24:00;1.45;;;0.30;;
78120;SDS011;67585;44.802;10.332;2023-03-05T07:29:03;2.90;;;0.20;;
78120;SDS011;67585;44.802;10.332;2023-03-05T07:31:28;4.25;;;0.43;;
78120;SDS011;67585;44.802;10.332;2023-03-05T07:34:00;0.75;;;0.17;;
78120;SDS011;67585;44.802;10.332;2023-03-05T07:36:27;1.13;;;0.10;;
78120;SDS011;67585;44.802;10.332;2023-03-05T07:38:53;2.42;;;0.17;;
78120;SDS011;67585;44.802;10.332;2023-03-05T07:41:19;3.35;;;0.43;;
78120;SDS011;67585;44.802;10.332;2023-03-05T07:43:48;1.65;;;0.30;;
78120;SDS011;67585;44.802;10.332;2023-03-05T07:46:19;0.93;;;0.10;;
78120;SDS011;67585;44.802;10.332;2023-03-05T07:48:46;1.88;;;0.17;;
78120;SDS011;67585;44.802;10.332;2023-03-05T07:51:19;1.58;;;0.10;;
78120;SDS011;67585;44.802;10.332;2023-03-05T07:54:20;1.55;;;0.20;;
78120;SDS011;67585;44.802;10.332;2023-03-05T07:56:55;3.08;;;0.38;;
78120;SDS011;67585;44.802;10.332;2023-03-05T07:59:46;2.65;;;0.20;;
78120;SDS011;67585;44.802;10.332;2023-03-05T08:02:19;1.95;;;0.30;;
78120;SDS011;67585;44.802;10.332;2023-03-05T08:10:43;1.45;;;0.22;;
78120;SDS011;67585;44.802;10.332;2023-03-05T08:13:11;4.18;;;0.30;;
78120;SDS011;67585;44.802;10.332;2023-03-05T08:15:43;2.83;;;0.20;;
78120;SDS011;67585;44.802;10.332;2023-03-05T08:18:59;2.72;;;0.10;;
78120;SDS011;67585;44.802;10.332;2023-03-05T08:21:28;2.22;;;0.52;;
78120;SDS011;67585;44.802;10.332;2023-03-05T08:23:59;1.60;;;0.10;;
78120;SDS011;67585;44.802;10.332;2023-03-05T08:26:56;1.42;;;0.10;;
78120;SDS011;67585;44.802;10.332;2023-03-05T08:29:40;2.50;;;0.10;;
78120;SDS011;67585;44.802;10.332;2023-03-05T08:32:17;1.50;;;0.20;;
78120;SDS011;67585;44.802;10.332;2023-03-05T08:34:46;2.47;;;0.40;;
78120;SDS011;67585;44.802;10.332;2023-03-05T08:37:33;3.65;;;0.25;;
78120;SDS011;67585;44.802;10.332;2023-03-05T08:40:19;1.63;;;0.57;;
78120;SDS011;67585;44.802;10.332;2023-03-05T08:46:02;1.27;;;0.20;;
78120;SDS011;67585;44.802;10.332;2023-03-05T08:48:31;2.33;;;0.57;;
78120;SDS011;67585;44.802;10.332;2023-03-05T08:51:02;1.85;;;0.47;;
78120;SDS011;67585;44.802;10.332;2023-03-05T08:53:53;1.80;;;0.60;;
78120;SDS011;67585;44.802;10.332;2023-03-05T08:56:35;2.97;;;0.35;;
78120;SDS011;67585;44.802;10.332;2023-03-05T08:59:04;1.48;;;0.22;;
78120;SDS011;67585;44.802;10.332;2023-03-05T09:01:30;2.78;;;0.13;;
78120;SDS011;67585;44.802;10.332;2023-03-05T09:04:01;2.92;;;0.75;;
78120;SDS011;67585;44.802;10.332;2023-03-05T09:06:34;2.55;;;0.82;;
78120;SDS011;67585;44.802;10.332;2023-03-05T09:09:05;3.25;;;0.88;;
78120;SDS011;67585;44.802;10.332;2023-03-05T09:11:39;3.47;;;1.17;;
78120;SDS011;67585;44.802;10.332;2023-03-05T09:14:11;3.88;;;1.23;;
78120;SDS011;67585;44.802;10.332;2023-03-05T09:16:36;4.32;;;0.98;;
78120;SDS011;67585;44.802;10.332;2023-03-05T09:19:07;4.80;;;1.02;;
78120;SDS011;67585;44.802;10.332;2023-03-05T09:21:34;3.83;;;0.50;;
78120;SDS011;67585;44.802;10.332;2023-03-05T09:24:03;3.40;;;0.77;;
78120;SDS011;67585;44.802;10.332;2023-03-05T09:26:34;2.78;;;0.80;;
78120;SDS011;67585;44.802;10.332;2023-03-05T09:29:15;4.07;;;0.77;;
78120;SDS011;67585;44.802;10.332;2023-03-05T09:31:40;3.45;;;1.63;;
78120;SDS011;67585;44.802;10.332;2023-03-05T09:34:09;4.30;;;1.02;;
78120;SDS011;67585;44.802;10.332;2023-03-05T09:36:38;3.60;;;0.65;;
78120;SDS011;67585;44.802;10.332;2023-03-05T09:39:04;3.63;;;0.98;;
78120;SDS011;67585;44.802;10.332;2023-03-05T09:44:39;4.47;;;1.45;;
78120;SDS011;67585;44.802;10.332;2023-03-05T09:50:07;4.60;;;1.55;;
78120;SDS011;67585;44.802;10.332;2023-03-05T09:52:44;5.35;;;1.70;;
78120;SDS011;67585;44.802;10.332;2023-03-05T09:55:59;5.15;;;1.83;;
78120;SDS011;67585;44.802;10.332;2023-03-05T09:58:10;4.63;;;1.35;;
78120;SDS011;67585;44.802;10.332;2023-03-05T10:00:40;4.68;;;1.50;;
78120;SDS011;67585;44.802;10.332;2023-03-05T10:03:19;5.68;;;2.03;;
78120;SDS011;67585;44.802;10.332;2023-03-05T10:08:48;5.55;;;1.77;;
78120;SDS011;67585;44.802;10.332;2023-03-05T10:13:58;4.88;;;2.17;;
78120;SDS011;67585;44.802;10.332;2023-03-05T10:24:43;4.28;;;1.88;;
78120;SDS011;67585;44.802;10.332;2023-03-05T10:27:32;5.72;;;2.00;;
78120;SDS011;67585;44.802;10.332;2023-03-05T10:33:22;4.13;;;1.38;;
78120;SDS011;67585;44.802;10.332;2023-03-05T10:36:12;3.70;;;1.63;;
78120;SDS011;67585;44.802;10.332;2023-03-05T10:38:56;6.50;;;1.90;;
78120;SDS011;67585;44.802;10.332;2023-03-05T10:47:15;4.18;;;2.55;;
78120;SDS011;67585;44.802;10.332;2023-03-05T10:49:52;6.35;;;2.13;;
78120;SDS011;67585;44.802;10.332;2023-03-05T10:52:21;6.85;;;2.03;;
78120;SDS011;67585;44.802;10.332;2023-03-05T10:54:56;5.13;;;2.38;;
78120;SDS011;67585;44.802;10.332;2023-03-05T10:57:42;4.88;;;2.08;;
78120;SDS011;67585;44.802;10.332;2023-03-05T11:00:24;4.65;;;1.83;;
78120;SDS011;67585;44.802;10.332;2023-03-05T11:06:01;4.10;;;1.60;;
78120;SDS011;67585;44.802;10.332;2023-03-05T11:08:24;5.93;;;2.92;;
78120;SDS011;67585;44.802;10.332;2023-03-05T11:14:01;6.85;;;2.75;;
78120;SDS011;67585;44.802;10.332;2023-03-05T11:16:31;7.22;;;2.95;;
78120;SDS011;67585;44.802;10.332;2023-03-05T11:21:42;6.10;;;2.88;;
78120;SDS011;67585;44.802;10.332;2023-03-05T11:29:25;5.63;;;2.80;;
78120;SDS011;67585;44.802;10.332;2023-03-05T11:31:55;4.72;;;2.20;;
78120;SDS011;67585;44.802;10.332;2023-03-05T11:34:44;6.63;;;2.60;;
78120;SDS011;67585;44.802;10.332;2023-03-05T11:37:18;5.47;;;2.15;;
78120;SDS011;67585;44.802;10.332;2023-03-05T11:42:53;6.82;;;2.65;;
78120;SDS011;67585;44.802;10.332;2023-03-05T11:45:21;7.55;;;2.97;;
78120;SDS011;67585;44.802;10.332;2023-03-05T11:47:53;7.32;;;3.50;;
78120;SDS011;67585;44.802;10.332;2023-03-05T11:50:26;7.45;;;3.40;;
78120;SDS011;67585;44.802;10.332;2023-03-05T11:52:54;6.95;;;3.20;;
78120;SDS011;67585;44.802;10.332;2023-03-05T12:00:33;7.25;;;3.38;;
78120;SDS011;67585;44.802;10.332;2023-03-05T12:03:03;6.30;;;3.35;;
78120;SDS011;67585;44.802;10.332;2023-03-05T12:05:34;6.53;;;3.20;;
78120;SDS011;67585;44.802;10.332;2023-03-05T12:08:04;7.13;;;3.05;;
78120;SDS011;67585;44.802;10.332;2023-03-05T12:10:35;7.13;;;3.65;;
78120;SDS011;67585;44.802;10.332;2023-03-05T12:15:58;8.00;;;3.28;;
78120;SDS011;67585;44.802;10.332;2023-03-05T12:21:40;7.50;;;3.15;;
78120;SDS011;67585;44.802;10.332;2023-03-05T12:29:41;7.78;;;4.18;;
78120;SDS011;67585;44.802;10.332;2023-03-05T12:34:47;10.23;;;5.10;;
78120;SDS011;67585;44.802;10.332;2023-03-05T12:40:02;6.75;;;3.85;;
78120;SDS011;67585;44.802;10.332;2023-03-05T12:47:41;8.95;;;5.57;;
78120;SDS011;67585;44.802;10.332;2023-03-05T12:52:51;7.78;;;3.85;;
78120;SDS011;67585;44.802;10.332;2023-03-05T12:58:12;6.00;;;3.17;;
78120;SDS011;67585;44.802;10.332;2023-03-05T13:00:48;9.10;;;4.25;;
78120;SDS011;67585;44.802;10.332;2023-03-05T13:03:26;8.20;;;3.75;;
78120;SDS011;67585;44.802;10.332;2023-03-05T13:11:43;8.30;;;3.60;;
78120;SDS011;67585;44.802;10.332;2023-03-05T13:23:26;8.90;;;4.20;;
78120;SDS011;67585;44.802;10.332;2023-03-05T13:28:37;9.43;;;3.58;;
78120;SDS011;67585;44.802;10.332;2023-03-05T13:31:12;10.75;;;3.92;;
78120;SDS011;67585;44.802;10.332;2023-03-05T13:33:51;7.20;;;3.78;;
78120;SDS011;67585;44.802;10.332;2023-03-05T13:36:30;8.13;;;3.75;;
78120;SDS011;67585;44.802;10.332;2023-03-05T13:38:57;8.10;;;3.45;;
78120;SDS011;67585;44.802;10.332;2023-03-05T13:41:24;7.47;;;3.13;;
78120;SDS011;67585;44.802;10.332;2023-03-05T13:43:55;8.27;;;4.18;;
78120;SDS011;67585;44.802;10.332;2023-03-05T13:46:23;6.13;;;3.45;;
78120;SDS011;67585;44.802;10.332;2023-03-05T13:48:57;7.90;;;3.85;;
78120;SDS011;67585;44.802;10.332;2023-03-05T13:51:46;6.82;;;3.55;;
78120;SDS011;67585;44.802;10.332;2023-03-05T13:54:14;9.00;;;3.65;;
78120;SDS011;67585;44.802;10.332;2023-03-05T13:56:54;9.10;;;4.10;;
78120;SDS011;67585;44.802;10.332;2023-03-05T13:59:23;7.45;;;4.32;;
78120;SDS011;67585;44.802;10.332;2023-03-05T14:01:53;8.13;;;4.10;;
78120;SDS011;67585;44.802;10.332;2023-03-05T14:04:23;8.02;;;4.07;;
78120;SDS011;67585;44.802;10.332;2023-03-05T14:09:25;9.30;;;4.68;;
78120;SDS011;67585;44.802;10.332;2023-03-05T14:11:54;7.38;;;3.88;;
78120;SDS011;67585;44.802;10.332;2023-03-05T14:14:26;9.77;;;4.38;;
78120;SDS011;67585;44.802;10.332;2023-03-05T14:16:52;8.02;;;4.30;;
78120;SDS011;67585;44.802;10.332;2023-03-05T14:19:37;8.18;;;4.07;;
78120;SDS011;67585;44.802;10.332;2023-03-05T14:22:04;8.25;;;3.90;;
78120;SDS011;67585;44.802;10.332;2023-03-05T14:26:57;8.70;;;4.43;;
78120;SDS011;67585;44.802;10.332;2023-03-05T14:29:31;8.90;;;4.28;;
78120;SDS011;67585;44.802;10.332;2023-03-05T14:32:15;8.18;;;4.00;;
78120;SDS011;67585;44.802;10.332;2023-03-05T14:34:50;8.60;;;3.92;;
78120;SDS011;67585;44.802;10.332;2023-03-05T14:37:21;7.97;;;3.60;;
78120;SDS011;67585;44.802;10.332;2023-03-05T14:39:50;10.70;;;4.63;;
78120;SDS011;67585;44.802;10.332;2023-03-05T14:44:49;7.57;;;4.28;;
78120;SDS011;67585;44.802;10.332;2023-03-05T14:47:15;8.95;;;3.75;;
78120;SDS011;67585;44.802;10.332;2023-03-05T14:49:40;8.73;;;3.38;;
78120;SDS011;67585;44.802;10.332;2023-03-05T14:52:06;8.30;;;3.15;;
78120;SDS011;67585;44.802;10.332;2023-03-05T14:54:33;9.85;;;4.10;;
78120;SDS011;67585;44.802;10.332;2023-03-05T14:57:01;7.88;;;4.47;;
78120;SDS011;67585;44.802;10.332;2023-03-05T14:59:28;6.65;;;3.72;;
78120;SDS011;67585;44.802;10.332;2023-03-05T15:01:53;6.85;;;3.38;;
78120;SDS011;67585;44.802;10.332;2023-03-05T15:04:19;8.20;;;3.85;;
78120;SDS011;67585;44.802;10.332;2023-03-05T15:06:44;6.38;;;3.05;;
78120;SDS011;67585;44.802;10.332;2023-03-05T15:09:14;7.47;;;3.55;;
78120;SDS011;67585;44.802;10.332;2023-03-05T15:11:42;7.90;;;3.65;;
78120;SDS011;67585;44.802;10.332;2023-03-05T15:14:08;9.25;;;3.58;;
78120;SDS011;67585;44.802;10.332;2023-03-05T15:16:34;7.35;;;3.28;;
78120;SDS011;67585;44.802;10.332;2023-03-05T15:19:00;6.78;;;3.60;;
78120;SDS011;67585;44.802;10.332;2023-03-05T15:21:27;6.50;;;3.17;;
78120;SDS011;67585;44.802;10.332;2023-03-05T15:23:53;7.75;;;3.00;;
78120;SDS011;67585;44.802;10.332;2023-03-05T15:26:19;7.10;;;3.65;;
78120;SDS011;67585;44.802;10.332;2023-03-05T15:28:45;6.95;;;2.85;;
78120;SDS011;67585;44.802;10.332;2023-03-05T15:31:14;6.32;;;3.35;;
78120;SDS011;67585;44.802;10.332;2023-03-05T15:33:42;6.70;;;3.17;;
78120;SDS011;67585;44.802;10.332;2023-03-05T15:36:07;7.68;;;3.50;;
78120;SDS011;67585;44.802;10.332;2023-03-05T15:38:33;6.82;;;3.35;;
78120;SDS011;67585;44.802;10.332;2023-03-05T15:40:59;6.60;;;3.08;;
78120;SDS011;67585;44.802;10.332;2023-03-05T15:43:24;6.72;;;2.85;;
78120;SDS011;67585;44.802;10.332;2023-03-05T15:45:50;7.97;;;3.08;;
78120;SDS011;67585;44.802;10.332;2023-03-05T15:48:15;5.97;;;2.17;;
78120;SDS011;67585;44.802;10.332;2023-03-05T15:50:41;8.13;;;2.67;;
78120;SDS011;67585;44.802;10.332;2023-03-05T15:53:07;7.28;;;3.28;;
78120;SDS011;67585;44.802;10.332;2023-03-05T15:55:39;5.88;;;2.83;;
78120;SDS011;67585;44.802;10.332;2023-03-05T15:58:05;6.72;;;2.58;;
78120;SDS011;67585;44.802;10.332;2023-03-05T16:00:30;6.63;;;2.25;;
78120;SDS011;67585;44.802;10.332;2023-03-05T16:02:58;6.25;;;2.92;;
78120;SDS011;67585;44.802;10.332;2023-03-05T16:05:23;7.18;;;2.15;;
78120;SDS011;67585;44.802;10.332;2023-03-05T16:07:49;6.00;;;2.65;;
78120;SDS011;67585;44.802;10.332;2023-03-05T16:10:18;4.63;;;1.60;;
78120;SDS011;67585;44.802;10.332;2023-03-05T16:12:47;6.38;;;2.53;;
78120;SDS011;67585;44.802;10.332;2023-03-05T16:15:17;4.72;;;1.45;;
78120;SDS011;67585;44.802;10.332;2023-03-05T16:17:44;6.38;;;1.90;;
78120;SDS011;67585;44.802;10.332;2023-03-05T16:20:13;4.72;;;2.17;;
78120;SDS011;67585;44.802;10.332;2023-03-05T16:22:39;4.35;;;1.70;;
78120;SDS011;67585;44.802;10.332;2023-03-05T16:25:05;5.95;;;2.22;;
78120;SDS011;67585;44.802;10.332;2023-03-05T16:27:30;6.25;;;2.70;;
78120;SDS011;67585;44.802;10.332;2023-03-05T16:29:56;6.78;;;2.45;;
78120;SDS011;67585;44.802;10.332;2023-03-05T16:32:22;5.43;;;1.75;;
78120;SDS011;67585;44.802;10.332;2023-03-05T16:34:48;6.20;;;2.17;;
78120;SDS011;67585;44.802;10.332;2023-03-05T16:37:17;6.57;;;1.95;;
78120;SDS011;67585;44.802;10.332;2023-03-05T16:39:44;6.22;;;1.40;;
78120;SDS011;67585;44.802;10.332;2023-03-05T16:42:10;5.20;;;1.73;;
78120;SDS011;67585;44.802;10.332;2023-03-05T16:47:03;7.10;;;2.45;;